Latest Weather Observations for Fort Denison

IDN60801

Issued at 2:05 am EST Thursday 21 August 2014 (issued every 30 minutes, with the page automatically refreshed every 10 minutes)

About weather observations | Map of weather stations | Latest weather observations for NSW | Other Formats
Station Details ID: 066022 Name: FORT DENISON Lat: -33.86 Lon: 151.23 Height: 5.0 m
Data from the previous 72 hours. | See also: Recent months for locations in New South Wales
Date/Time
EST
Temp
°C
App
Temp
°C
Dew
Point
Rel
Hum
%
Delta-T
°C
Wind Press
QNH
hPa
Press
MSL
hPa
Rain
since 9 am
mm
Dir
 
Spd
km/h
Gust
km/h
Spd
kts
Gust
kts
21/02:00am - - - - - W 13 15 7 8 - - -
21/01:30am - - - - - W 9 15 5 8 - - -
21/01:00am - - - - - W 13 20 7 11 - - -
21/12:30am - - - - - SE 9 13 5 7 - - -
21/12:00am - - - - - SSW 13 19 7 10 - - -
 
Date/Time
EST
Temp
°C
App
Temp
°C
Dew
Point
Rel
Hum
%
Delta-T
°C
Wind Press
QNH
hPa
Press
MSL
hPa
Rain
since 9 am
mm
Dir
 
Spd
km/h
Gust
km/h
Spd
kts
Gust
kts
20/11:30pm - - - - - SSW 17 22 9 12 - - -
20/11:00pm - - - - - SSW 13 20 7 11 - - -
20/10:30pm - - - - - SSW 13 19 7 10 - - -
20/10:00pm - - - - - SSW 13 20 7 11 - - -
20/09:30pm - - - - - S 13 19 7 10 - - -
20/09:00pm - - - - - S 9 19 5 10 - - -
20/08:30pm - - - - - S 11 17 6 9 - - -
20/08:00pm - - - - - S 13 19 7 10 - - -
20/07:30pm - - - - - S 11 17 6 9 - - -
20/07:00pm - - - - - S 11 20 6 11 - - -
20/06:30pm - - - - - S 13 22 7 12 - - -
20/06:00pm - - - - - S 13 19 7 10 - - -
20/05:30pm - - - - - S 17 30 9 16 - - -
20/05:00pm - - - - - S 19 24 10 13 - - -
20/04:30pm - - - - - S 19 33 10 18 - - -
20/04:00pm - - - - - S 19 28 10 15 - - -
20/03:30pm - - - - - S 22 32 12 17 - - -
20/03:00pm - - - - - S 22 39 12 21 - - -
20/02:30pm - - - - - S 26 39 14 21 - - -
20/02:00pm - - - - - S 22 39 12 21 - - -
20/01:30pm - - - - - SSW 26 39 14 21 - - -
20/01:00pm - - - - - S 24 41 13 22 - - -
20/12:30pm - - - - - S 22 35 12 19 - - -
20/12:00pm - - - - - S 22 35 12 19 - - -
20/11:30am - - - - - SSW 22 33 12 18 - - -
20/11:00am - - - - - S 20 39 11 21 - - -
20/10:30am - - - - - SSW 24 39 13 21 - - -
20/10:00am - - - - - SSW 22 35 12 19 - - -
20/09:30am - - - - - SW 15 28 8 15 - - -
20/09:00am - - - - - W 22 30 12 16 - - -
20/08:30am - - - - - W 22 30 12 16 - - -
20/08:00am - - - - - W 24 33 13 18 - - -
20/07:30am - - - - - W 28 33 15 18 - - -
20/07:00am - - - - - W 26 32 14 17 - - -
20/06:30am - - - - - W 24 33 13 18 - - -
20/06:00am - - - - - W 24 35 13 19 - - -
20/05:30am - - - - - W 24 32 13 17 - - -
20/05:00am - - - - - W 24 32 13 17 - - -
20/04:30am - - - - - W 26 33 14 18 - - -
20/04:00am - - - - - W 26 32 14 17 - - -
20/03:30am - - - - - W 24 30 13 16 - - -
20/03:00am - - - - - W 24 32 13 17 - - -
20/02:30am - - - - - W 24 30 13 16 - - -
20/02:00am - - - - - W 22 28 12 15 - - -
20/01:30am - - - - - W 22 30 12 16 - - -
20/01:00am - - - - - SW 22 35 12 19 - - -
20/12:30am - - - - - SW 22 33 12 18 - - -
20/12:00am - - - - - SW 20 35 11 19 - - -
 
Date/Time
EST
Temp
°C
App
Temp
°C
Dew
Point
Rel
Hum
%
Delta-T
°C
Wind Press
QNH
hPa
Press
MSL
hPa
Rain
since 9 am
mm
Dir
 
Spd
km/h
Gust
km/h
Spd
kts
Gust
kts
19/11:30pm - - - - - SW 17 30 9 16 - - -
19/11:00pm - - - - - SW 22 41 12 22 - - -
19/10:30pm - - - - - SW 22 37 12 20 - - -
19/10:00pm - - - - - SSW 24 39 13 21 - - -
19/09:30pm - - - - - SSW 22 41 12 22 - - -
19/09:00pm - - - - - SSW 20 35 11 19 - - -
19/08:30pm - - - - - SSW 22 33 12 18 - - -
19/08:08pm - - - - - SSW 28 48 15 26 - - -
19/08:00pm - - - - - SSW 26 48 14 26 - - -
19/07:30pm - - - - - SSW 28 46 15 25 - - -
19/07:00pm - - - - - SW 19 41 10 22 - - -
19/06:30pm - - - - - SSW 24 37 13 20 - - -
19/06:00pm - - - - - SSW 24 39 13 21 - - -
19/05:30pm - - - - - S 24 46 13 25 - - -
19/05:00pm - - - - - SW 26 39 14 21 - - -
19/04:30pm - - - - - SSW 24 37 13 20 - - -
19/04:00pm - - - - - SSW 26 44 14 24 - - -
19/03:30pm - - - - - SSW 24 41 13 22 - - -
19/03:00pm - - - - - SW 26 39 14 21 - - -
19/02:38pm - - - - - S 28 50 15 27 - - -
19/02:30pm - - - - - SW 17 28 9 15 - - -
19/02:00pm - - - - - SSW 28 43 15 23 - - -
19/01:40pm - - - - - SSW 28 54 15 29 - - -
19/01:30pm - - - - - SSW 24 44 13 24 - - -
19/01:02pm - - - - - S 28 56 15 30 - - -
19/01:00pm - - - - - S 24 56 13 30 - - -
19/12:30pm - - - - - SSW 19 32 10 17 - - -
19/12:00pm - - - - - S 32 57 17 31 - - -
19/11:58am - - - - - S 30 56 16 30 - - -
19/11:30am - - - - - SSW 28 44 15 24 - - -
19/11:00am - - - - - SSW 28 50 15 27 - - -
19/10:54am - - - - - SSW 28 50 15 27 - - -
19/10:30am - - - - - SSW 20 33 11 18 - - -
19/10:00am - - - - - SSW 28 44 15 24 - - -
19/09:30am - - - - - SSW 32 52 17 28 - - -
19/09:00am - - - - - S 28 52 15 28 - - -
19/08:59am - - - - - S 28 52 15 28 - - -
19/08:30am - - - - - S 19 35 10 19 - - -
19/08:00am - - - - - S 17 32 9 17 - - -
19/07:38am - - - - - SSE 41 78 22 42 - - -
19/07:37am - - - - - SSE 32 57 17 31 - - -
19/07:30am - - - - - S 24 39 13 21 - - -
19/07:17am - - - - - S 28 52 15 28 - - -
19/07:00am - - - - - S 19 30 10 16 - - -
19/06:32am - - - - - S 28 50 15 27 - - -
19/06:30am - - - - - S 24 50 13 27 - - -
19/06:00am - - - - - S 22 41 12 22 - - -
19/05:31am - - - - - SSE 52 74 28 40 - - -
19/05:30am - - - - - S 24 74 13 40 - - -
19/05:05am - - - - - S 28 50 15 27 - - -
19/05:00am - - - - - S 20 33 11 18 - - -
19/04:38am - - - - - S 28 46 15 25 - - -
19/04:30am - - - - - S 24 39 13 21 - - -
19/04:00am - - - - - S 22 32 12 17 - - -
19/03:30am - - - - - SSW 24 39 13 21 - - -
19/03:00am - - - - - SSW 24 41 13 22 - - -
19/02:45am - - - - - S 28 46 15 25 - - -
19/02:30am - - - - - SSW 20 30 11 16 - - -
19/02:09am - - - - - S 28 50 15 27 - - -
19/02:00am - - - - - S 24 43 13 23 - - -
19/01:30am - - - - - S 22 39 12 21 - - -
19/01:00am - - - - - S 20 33 11 18 - - -
19/12:38am - - - - - S 28 50 15 27 - - -
19/12:30am - - - - - S 20 39 11 21 - - -
19/12:13am - - - - - S 28 46 15 25 - - -
19/12:00am - - - - - SSE 28 37 15 20 - - -
 
Date/Time
EST
Temp
°C
App
Temp
°C
Dew
Point
Rel
Hum
%
Delta-T
°C
Wind Press
QNH
hPa
Press
MSL
hPa
Rain
since 9 am
mm
Dir
 
Spd
km/h
Gust
km/h
Spd
kts
Gust
kts
18/11:30pm - - - - - SSE 17 22 9 12 - - -
18/11:00pm - - - - - S 19 33 10 18 - - -
18/10:30pm - - - - - S 19 30 10 16 - - -
18/10:00pm - - - - - S 19 30 10 16 - - -
18/09:30pm - - - - - SSW 24 35 13 19 - - -
18/09:00pm - - - - - S 20 35 11 19 - - -
18/08:30pm - - - - - SW 17 33 9 18 - - -
18/08:00pm - - - - - SW 20 33 11 18 - - -
18/07:30pm - - - - - WSW 22 32 12 17 - - -
18/07:00pm - - - - - W 26 43 14 23 - - -
18/06:30pm - - - - - WSW 20 37 11 20 - - -
18/06:00pm - - - - - WSW 22 48 12 26 - - -
18/05:32pm - - - - - WSW 28 50 15 27 - - -
18/05:30pm - - - - - SW 26 50 14 27 - - -
18/05:20pm - - - - - SW 28 48 15 26 - - -
18/05:00pm - - - - - SW 24 43 13 23 - - -
18/04:30pm - - - - - WSW 24 50 13 27 - - -
18/04:00pm - - - - - SW 28 56 15 30 - - -
18/03:30pm - - - - - SSW 30 59 16 32 - - -
18/03:02pm - - - - - SSW 30 48 16 26 - - -
18/03:00pm - - - - - SSW 28 44 15 24 - - -
18/02:30pm - - - - - SSW 32 52 17 28 - - -
18/02:01pm - - - - - S 30 48 16 26 - - -
18/02:00pm - - - - - S 30 46 16 25 - - -
18/01:30pm - - - - - S 30 52 16 28 - - -
18/01:00pm - - - - - S 30 50 16 27 - - -
18/12:32pm - - - - - S 28 52 15 28 - - -
18/12:30pm - - - - - S 26 48 14 26 - - -
18/12:00pm - - - - - S 28 46 15 25 - - -
18/11:30am - - - - - S 33 59 18 32 - - -
18/11:00am - - - - - S 39 63 21 34 - - -
18/10:52am - - - - - SSE 41 59 22 32 - - -
18/10:48am - - - - - SSE 44 59 24 32 - - -
18/10:30am - - - - - SE 17 24 9 13 - - -
18/10:00am - - - - - SE 24 37 13 20 - - -
18/09:30am - - - - - SSE 33 46 18 25 - - -
18/09:00am - - - - - S 32 54 17 29 - - -
18/08:56am - - - - - S 28 46 15 25 - - -
18/08:30am - - - - - W 30 46 16 25 - - -
18/08:00am - - - - - W 20 32 11 17 - - -
18/07:30am - - - - - WNW 20 24 11 13 - - -
18/07:00am - - - - - W 17 20 9 11 - - -
18/06:30am - - - - - W 13 17 7 9 - - -
18/06:00am - - - - - W 15 19 8 10 - - -
18/05:30am - - - - - WNW 13 15 7 8 - - -
18/05:00am - - - - - W 9 11 5 6 - - -
18/04:30am - - - - - WNW 15 20 8 11 - - -
18/04:00am - - - - - WNW 13 19 7 10 - - -
18/03:30am - - - - - WNW 17 24 9 13 - - -
18/03:00am - - - - - W 22 26 12 14 - - -
18/02:30am - - - - - W 24 32 13 17 - - -

Other Formats:

Comma delimited format used in spreadsheet applications
http://www.bom.gov.au/fwo/IDN60801/IDN60801.94769.axf

JavaScript Object Notation format (JSON) in row-major order
http://www.bom.gov.au/fwo/IDN60801/IDN60801.94769.json